Alto Springs, Texas
Current Conditions -  °F | °C
As of 7:55 PM on Saturday 20 Dec 2014 (Local Time) from KLXY Reporting Station
Overcast Overcast  
Wind Chill: 49°   Ceiling: 1400
Heat Index: 49°   Visibility: 10mi
Dew Point: 46°   Wind: 0mph
Humidity: 89%   Direction: NA
Pressure: 30.19"   Gusts: NA
Location:  31.3327°N, 96.6013°W
Report Text: KLXY 210155Z AUTO 00000KT 10SM BKN014 OVC029 10/08 A3019 RMK AO2 T00950077
Loading
Personal Weather Stations






























Interactive Weather Map New forecast layout! Learn more

10-Day Weather Forecast

Advertisements
Track Severe Weather on mobile